Time;durP1;ratioP1;P1;durP2;ratioP2;P2;SDS_P1;SDS_P2;PMS_P1;PMS_P2;Temp;Humidity;BMP_temperature;BMP_pressure;BME280_temperature;BME280_humidity;BME280_pressure;Samples;Min_cycle;Max_cycle;Signal;HPM_P1;HPM_P2
2023/12/05 00:02:21;;;;;;;11.03;8.23;;;;;;;;;;6022144;23;20417;-86
2023/12/05 00:05:12;;;;;;;9.90;8.20;;;;;;;;;;6054088;23;20427;-87
2023/12/05 00:08:25;;;;;;;10.90;8.17;;;;;;;;;;6167110;23;20389;-86
2023/12/05 00:11:32;;;;;;;;;;;;;;;;;;;;;
2023/12/05 00:14:36;;;;;;;10.80;7.73;;;;;;;;;;6232082;23;20397;-89
2023/12/05 00:17:49;;;;;;;8.63;7.70;;;;;;;;;;6203192;23;20412;-88
2023/12/05 00:21:06;;;;;;;11.60;8.20;;;;;;;;;;6096602;23;20575;-86
2023/12/05 00:23:59;;;;;;;13.50;9.43;;;;;;;;;;6051642;23;20392;-88
2023/12/05 00:27:15;;;;;;;11.23;7.97;;;;;;;;;;6060751;23;20419;-88
2023/12/05 00:33:23;;;;;;;11.50;9.53;;;;;;;;;;6078074;23;20420;-86
2023/12/05 00:36:39;;;;;;;9.77;8.60;;;;;;;;;;6086230;23;20419;-87
2023/12/05 00:45:55;;;;;;;8.53;7.40;;;;;;;;;;6041142;23;20420;-87
2023/12/05 00:55:47;;;;;;;;;;;;;;;;;;;;;
2023/12/05 00:58:41;;;;;;;10.00;7.40;;;;;;;;;;6095679;23;20471;-87
2023/12/05 01:04:38;;;;;;;9.93;7.50;;;;;;;;;;6183022;23;20428;-88
2023/12/05 01:07:14;;;;;;;11.70;9.17;;;;;;;;;;6171683;23;20978;-89
2023/12/05 01:10:17;;;;;;;;;;;;;;;;;;;;;
2023/12/05 01:20:06;;;;;;;11.10;7.90;;;;;;;;;;6049443;23;20440;-88
2023/12/05 01:29:56;;;;;;;;;;;;;;;;;;;;;
2023/12/05 01:33:04;;;;;;;;;;;;;;;;;;;;;
2023/12/05 01:36:19;;;;;;;11.00;8.97;;;;;;;;;;6080583;23;20453;-88
2023/12/05 01:39:37;;;;;;;10.43;8.53;;;;;;;;;;6046040;23;20401;-88
2023/12/05 01:42:21;;;;;;;12.40;8.60;;;;;;;;;;6047213;23;20469;-86
2023/12/05 01:45:22;;;;;;;10.93;8.90;;;;;;;;;;6024357;23;20401;-87
2023/12/05 01:48:00;;;;;;;8.93;8.03;;;;;;;;;;6034471;23;20517;-86
2023/12/05 01:54:09;;;;;;;9.93;7.63;;;;;;;;;;6070481;23;20410;-87
2023/12/05 01:57:24;;;;;;;13.57;9.70;;;;;;;;;;6045292;23;20409;-89
2023/12/05 02:00:10;;;;;;;13.27;8.40;;;;;;;;;;5914443;23;20480;-87
2023/12/05 02:06:53;;;;;;;11.40;8.60;;;;;;;;;;6090212;23;20549;-88
2023/12/05 02:13:11;;;;;;;9.20;6.60;;;;;;;;;;6199308;23;20378;-88
2023/12/05 02:16:04;;;;;;;9.80;8.20;;;;;;;;;;6121749;23;20409;-88
2023/12/05 02:21:44;;;;;;;10.43;8.50;;;;;;;;;;6195724;23;20555;-87
2023/12/05 02:24:44;;;;;;;10.07;8.23;;;;;;;;;;6190720;23;20425;-89
2023/12/05 02:27:47;;;;;;;11.37;7.57;;;;;;;;;;6199053;23;20421;-87
2023/12/05 02:30:39;;;;;;;12.00;9.40;;;;;;;;;;6203147;23;20469;-89
2023/12/05 02:33:19;;;;;;;8.73;7.83;;;;;;;;;;6190614;23;20406;-89
2023/12/05 02:36:15;;;;;;;9.30;7.43;;;;;;;;;;6182882;23;20416;-89
2023/12/05 02:46:25;;;;;;;10.33;8.43;;;;;;;;;;6107424;23;20399;-90
2023/12/05 02:49:37;;;;;;;11.10;7.90;;;;;;;;;;6086473;23;20681;-87
2023/12/05 02:52:30;;;;;;;9.43;7.37;;;;;;;;;;6111526;23;20689;-87
2023/12/05 02:55:48;;;;;;;10.40;8.20;;;;;;;;;;6185864;23;20737;-88
2023/12/05 02:58:40;;;;;;;9.90;8.27;;;;;;;;;;6184927;23;20414;-87
2023/12/05 03:01:43;;;;;;;11.53;8.23;;;;;;;;;;6191408;23;20505;-89
2023/12/05 03:04:46;;;;;;;8.87;7.97;;;;;;;;;;6190562;23;20413;-88
2023/12/05 03:14:03;;;;;;;10.20;7.97;;;;;;;;;;6116794;23;20467;-90
2023/12/05 03:17:05;;;;;;;11.67;8.10;;;;;;;;;;6201274;23;20393;-84
2023/12/05 03:20:03;;;;;;;9.50;6.33;;;;;;;;;;6186264;23;20422;-88
2023/12/05 03:26:25;;;;;;;7.97;7.17;;;;;;;;;;6180040;23;20462;-88
2023/12/05 03:29:19;;;;;;;10.23;8.47;;;;;;;;;;6188427;23;20413;-86
2023/12/05 03:32:16;;;;;;;9.10;7.37;;;;;;;;;;6186594;23;20421;-86
2023/12/05 03:44:53;;;;;;;9.23;7.40;;;;;;;;;;6189848;23;20881;-88
2023/12/05 03:47:37;;;;;;;8.43;6.47;;;;;;;;;;6182822;23;20414;-88
2023/12/05 03:53:09;;;;;;;11.17;7.43;;;;;;;;;;6188729;23;20503;-85
2023/12/05 03:56:13;;;;;;;9.67;6.60;;;;;;;;;;6161806;23;20405;-87
2023/12/05 03:59:00;;;;;;;8.17;6.97;;;;;;;;;;6163376;23;20402;-87
2023/12/05 04:02:03;;;;;;;8.20;6.87;;;;;;;;;;6155022;23;20520;-87
2023/12/05 04:04:41;;;;;;;9.33;6.60;;;;;;;;;;6146909;23;20420;-84
2023/12/05 04:07:26;;;;;;;11.23;7.00;;;;;;;;;;6185085;23;20504;-84
2023/12/05 04:10:22;;;;;;;8.13;6.07;;;;;;;;;;6186131;23;20421;-88
2023/12/05 04:13:11;;;;;;;8.07;5.90;;;;;;;;;;6189415;23;20422;-88
2023/12/05 04:16:04;;;;;;;5.63;5.13;;;;;;;;;;6200786;23;20440;-89
2023/12/05 04:18:44;;;;;;;6.20;4.90;;;;;;;;;;6194356;23;20424;-88
2023/12/05 04:21:26;;;;;;;6.60;6.00;;;;;;;;;;6187047;23;20456;-87
2023/12/05 04:24:15;;;;;;;7.77;6.13;;;;;;;;;;6185256;23;20413;-87
2023/12/05 04:27:09;;;;;;;8.73;6.80;;;;;;;;;;6170578;23;20394;-88
2023/12/05 04:29:53;;;;;;;7.87;7.07;;;;;;;;;;6189614;23;20437;-89
2023/12/05 04:32:39;;;;;;;8.37;6.33;;;;;;;;;;6183898;23;20433;-86
2023/12/05 04:35:16;;;;;;;7.30;5.90;;;;;;;;;;6185574;23;20413;-89
2023/12/05 04:38:02;;;;;;;8.90;5.60;;;;;;;;;;6187747;23;20500;-88
2023/12/05 04:40:46;;;;;;;7.80;5.60;;;;;;;;;;6187087;23;20477;-90
2023/12/05 04:43:37;;;;;;;8.20;6.47;;;;;;;;;;6178671;23;20402;-87
2023/12/05 04:46:13;;;;;;;6.60;5.90;;;;;;;;;;6183521;23;20409;-86
2023/12/05 04:48:56;;;;;;;7.00;6.30;;;;;;;;;;6179200;23;20422;-87
2023/12/05 04:51:44;;;;;;;7.37;6.10;;;;;;;;;;6180553;23;20418;-89
2023/12/05 04:54:27;;;;;;;8.40;7.10;;;;;;;;;;6176379;23;20709;-89
2023/12/05 04:57:20;;;;;;;6.70;6.07;;;;;;;;;;6180510;23;20446;-89
2023/12/05 05:00:29;;;;;;;8.40;6.43;;;;;;;;;;6186904;23;20457;-85
2023/12/05 05:03:24;;;;;;;;;;;;;;;;;;;;;
2023/12/05 05:06:21;;;;;;;;;;;;;;;;;;;;;
2023/12/05 05:09:24;;;;;;;6.63;5.83;;;;;;;;;;6178725;23;20414;-86
2023/12/05 05:12:03;;;;;;;7.60;5.87;;;;;;;;;;6176422;23;20867;-88
2023/12/05 05:15:08;;;;;;;7.70;5.80;;;;;;;;;;6181745;23;21054;-89
2023/12/05 05:18:10;;;;;;;6.23;5.63;;;;;;;;;;6181584;23;20393;-88
2023/12/05 05:20:51;;;;;;;9.30;6.83;;;;;;;;;;6181266;23;20537;-88
2023/12/05 05:23:43;;;;;;;8.00;6.30;;;;;;;;;;6063865;23;20390;-89
2023/12/05 05:26:15;;;;;;;7.10;5.23;;;;;;;;;;6040360;23;20909;-88
2023/12/05 05:28:52;;;;;;;11.27;6.10;;;;;;;;;;6041149;23;20420;-88
2023/12/05 05:31:25;;;;;;;8.47;6.50;;;;;;;;;;6041344;23;20464;-88
2023/12/05 05:34:19;;;;;;;6.93;5.03;;;;;;;;;;6042412;23;20428;-85
2023/12/05 05:36:56;;;;;;;6.30;5.13;;;;;;;;;;6041474;23;20429;-86
2023/12/05 05:39:31;;;;;;;6.73;5.40;;;;;;;;;;6042713;23;20421;-86
2023/12/05 05:42:18;;;;;;;6.37;4.90;;;;;;;;;;6061860;23;20452;-87
2023/12/05 05:44:51;;;;;;;5.23;4.73;;;;;;;;;;6040668;23;20441;-88
2023/12/05 05:47:37;;;;;;;7.10;5.00;;;;;;;;;;6038892;23;20412;-88
2023/12/05 05:50:44;;;;;;;7.73;4.97;;;;;;;;;;6046921;23;20449;-87
2023/12/05 05:53:21;;;;;;;6.90;5.17;;;;;;;;;;6037961;23;21042;-90
2023/12/05 05:55:56;;;;;;;6.30;4.83;;;;;;;;;;6066094;23;20428;-87
2023/12/05 05:58:31;;;;;;;6.37;5.00;;;;;;;;;;6041088;23;20452;-87
2023/12/05 06:01:18;;;;;;;5.90;5.30;;;;;;;;;;6137372;23;20450;-86
2023/12/05 06:03:57;;;;;;;5.07;4.30;;;;;;;;;;6183760;23;20433;-85
2023/12/05 06:06:39;;;;;;;7.67;5.00;;;;;;;;;;6197228;23;20405;-87
2023/12/05 06:09:11;;;;;;;5.90;5.17;;;;;;;;;;6201803;23;20390;-86
2023/12/05 06:11:53;;;;;;;6.23;5.40;;;;;;;;;;6201275;23;20414;-87
2023/12/05 06:14:20;;;;;;;6.50;5.10;;;;;;;;;;6199946;23;20386;-89
2023/12/05 06:17:32;;;;;;;;;;;;;;;;;;;;;
2023/12/05 06:20:22;;;;;;;6.83;5.10;;;;;;;;;;6197018;23;20426;-88
2023/12/05 06:23:20;;;;;;;8.47;5.97;;;;;;;;;;6155428;23;20405;-87
2023/12/05 06:28:55;;;;;;;6.77;4.63;;;;;;;;;;6175244;23;20414;-88
2023/12/05 06:31:28;;;;;;;5.37;4.63;;;;;;;;;;6187754;23;20421;-89
2023/12/05 06:34:13;;;;;;;5.93;4.93;;;;;;;;;;6186537;23;20410;-87
2023/12/05 06:36:57;;;;;;;4.10;3.07;;;;;;;;;;6184513;23;20402;-88
2023/12/05 06:39:46;;;;;;;5.50;4.50;;;;;;;;;;6181736;23;21012;-87
2023/12/05 06:42:32;;;;;;;6.77;4.33;;;;;;;;;;6182992;23;20448;-86
2023/12/05 06:45:31;;;;;;;6.13;5.53;;;;;;;;;;6178441;23;20386;-87
2023/12/05 06:48:13;;;;;;;5.30;4.10;;;;;;;;;;6197538;23;20404;-88
2023/12/05 06:51:20;;;;;;;5.53;4.60;;;;;;;;;;6161525;23;20471;-89
2023/12/05 06:53:58;;;;;;;8.20;4.73;;;;;;;;;;6181282;23;20429;-89
2023/12/05 06:56:42;;;;;;;6.83;5.27;;;;;;;;;;6184893;23;20410;-89
2023/12/05 06:59:30;;;;;;;4.90;4.27;;;;;;;;;;6183915;23;20470;-87
2023/12/05 07:02:03;;;;;;;4.30;3.87;;;;;;;;;;6181918;23;20448;-87
2023/12/05 07:04:43;;;;;;;5.30;4.47;;;;;;;;;;6184698;23;20401;-88
2023/12/05 07:07:45;;;;;;;6.80;4.10;;;;;;;;;;6182047;23;20406;-88
2023/12/05 07:10:23;;;;;;;4.70;3.93;;;;;;;;;;6183502;23;20435;-88
2023/12/05 07:13:08;;;;;;;5.30;4.00;;;;;;;;;;6185827;23;20417;-87
2023/12/05 07:15:48;;;;;;;5.23;3.57;;;;;;;;;;6184768;23;20965;-88
2023/12/05 07:18:40;;;;;;;6.00;4.60;;;;;;;;;;6182971;23;20434;-86
2023/12/05 07:21:27;;;;;;;5.00;4.20;;;;;;;;;;6183628;23;20681;-87
2023/12/05 07:24:07;;;;;;;4.10;3.70;;;;;;;;;;6184287;23;20410;-89
2023/12/05 07:26:58;;;;;;;4.63;3.37;;;;;;;;;;6109563;23;20548;-87
2023/12/05 07:29:38;;;;;;;4.40;3.07;;;;;;;;;;6154646;23;20414;-87
2023/12/05 07:32:29;;;;;;;3.60;3.30;;;;;;;;;;6185133;23;20414;-87
2023/12/05 07:35:18;;;;;;;3.97;3.63;;;;;;;;;;6159865;23;20749;-89
2023/12/05 07:38:16;;;;;;;3.70;3.33;;;;;;;;;;6136603;23;20398;-89
2023/12/05 07:40:46;;;;;;;5.33;2.97;;;;;;;;;;6198843;23;20807;-88
2023/12/05 07:43:33;;;;;;;3.60;3.30;;;;;;;;;;6178817;23;20464;-87
2023/12/05 07:46:26;;;;;;;4.13;3.83;;;;;;;;;;6183308;23;20406;-87
2023/12/05 07:49:17;;;;;;;5.83;2.97;;;;;;;;;;6162160;23;20810;-88
2023/12/05 07:51:53;;;;;;;3.93;3.53;;;;;;;;;;6181762;23;20919;-88
2023/12/05 07:54:46;;;;;;;3.40;3.10;;;;;;;;;;6183122;23;20430;-88
2023/12/05 07:57:40;;;;;;;5.63;3.60;;;;;;;;;;6175879;23;20526;-88
2023/12/05 08:00:20;;;;;;;3.50;3.20;;;;;;;;;;6189061;23;20453;-88
2023/12/05 08:02:57;;;;;;;5.10;3.40;;;;;;;;;;6189609;23;20455;-88
2023/12/05 08:05:30;;;;;;;4.17;2.90;;;;;;;;;;6189207;23;20401;-88
2023/12/05 08:08:06;;;;;;;3.70;3.23;;;;;;;;;;6183979;23;20406;-87
2023/12/05 08:10:48;;;;;;;3.63;3.33;;;;;;;;;;6184681;23;20649;-88
2023/12/05 08:13:18;;;;;;;2.83;2.53;;;;;;;;;;6184556;23;20406;-87
2023/12/05 08:15:55;;;;;;;5.80;2.90;;;;;;;;;;6185766;23;20414;-89
2023/12/05 08:18:36;;;;;;;6.23;2.70;;;;;;;;;;6190755;23;20504;-88
2023/12/05 08:21:07;;;;;;;4.13;2.83;;;;;;;;;;6183944;23;20452;-87
2023/12/05 08:23:43;;;;;;;4.63;2.63;;;;;;;;;;6183769;23;20409;-88
2023/12/05 08:26:40;;;;;;;2.83;2.63;;;;;;;;;;6182476;23;20406;-89
2023/12/05 08:29:17;;;;;;;3.83;2.80;;;;;;;;;;6182959;23;20401;-89
2023/12/05 08:31:53;;;;;;;3.60;2.87;;;;;;;;;;6182226;23;20418;-87
2023/12/05 08:34:24;;;;;;;3.57;2.63;;;;;;;;;;6183575;23;20568;-89
2023/12/05 08:37:17;;;;;;;6.50;3.30;;;;;;;;;;6186054;23;20667;-88
2023/12/05 08:43:05;;;;;;;2.60;2.40;;;;;;;;;;6184591;23;20456;-87
2023/12/05 08:45:59;;;;;;;6.10;2.80;;;;;;;;;;6174270;23;20504;-89
2023/12/05 08:54:07;;;;;;;2.50;2.30;;;;;;;;;;6231962;22;20431;-90
2023/12/05 08:56:47;;;;;;;3.97;2.90;;;;;;;;;;6207496;22;20401;-90
2023/12/05 08:59:18;;;;;;;3.20;2.97;;;;;;;;;;6205197;23;20409;-88
2023/12/05 09:01:52;;;;;;;2.60;2.40;;;;;;;;;;6201001;23;20548;-88
2023/12/05 09:04:24;;;;;;;2.60;2.40;;;;;;;;;;6203190;23;20466;-89
2023/12/05 09:10:48;;;;;;;2.60;2.40;;;;;;;;;;6086597;23;20451;-88
2023/12/05 09:13:17;;;;;;;2.50;2.30;;;;;;;;;;6053373;23;20425;-88
2023/12/05 09:19:12;;;;;;;3.70;2.40;;;;;;;;;;6165831;23;20401;-86
2023/12/05 09:22:17;;;;;;;2.37;2.17;;;;;;;;;;6201008;23;20446;-87
2023/12/05 09:24:58;;;;;;;2.67;2.47;;;;;;;;;;6196564;23;20410;-90
2023/12/05 09:27:43;;;;;;;3.03;2.30;;;;;;;;;;6195686;23;20440;-87
2023/12/05 09:30:16;;;;;;;2.27;1.97;;;;;;;;;;6184586;23;20468;-86
2023/12/05 09:32:51;;;;;;;2.53;2.30;;;;;;;;;;6183991;23;20421;-86
2023/12/05 09:35:38;;;;;;;2.27;2.07;;;;;;;;;;6185513;23;20409;-88
2023/12/05 09:41:50;;;;;;;2.20;2.00;;;;;;;;;;6133548;23;20453;-90
2023/12/05 09:44:23;;;;;;;2.70;2.13;;;;;;;;;;6159031;23;20501;-88
2023/12/05 09:47:07;;;;;;;;;;;;;;;;;;;;;
2023/12/05 09:52:54;;;;;;;2.17;1.90;;;;;;;;;;6144258;23;20432;-88
2023/12/05 09:55:46;;;;;;;3.07;2.13;;;;;;;;;;6182311;23;20473;-87
2023/12/05 09:58:25;;;;;;;2.87;1.90;;;;;;;;;;6188694;23;20489;-88
2023/12/05 10:01:25;;;;;;;4.33;1.93;;;;;;;;;;6178886;23;20500;-89
2023/12/05 10:04:04;;;;;;;1.70;1.60;;;;;;;;;;6179653;23;20421;-89
2023/12/05 10:06:46;;;;;;;5.27;2.00;;;;;;;;;;6179443;23;20406;-89
2023/12/05 10:09:23;;;;;;;2.37;1.87;;;;;;;;;;6178157;23;20491;-89
2023/12/05 10:11:53;;;;;;;2.13;1.60;;;;;;;;;;6180092;23;20756;-88
2023/12/05 10:14:31;;;;;;;1.93;1.73;;;;;;;;;;6181410;23;20410;-86
2023/12/05 10:17:06;;;;;;;3.57;1.90;;;;;;;;;;6184528;23;20394;-87
2023/12/05 10:19:53;;;;;;;2.03;1.83;;;;;;;;;;6185199;23;20473;-87
2023/12/05 10:22:22;;;;;;;4.70;1.90;;;;;;;;;;6186920;23;20493;-86
2023/12/05 10:24:52;;;;;;;1.53;1.43;;;;;;;;;;6167086;23;20414;-89
2023/12/05 10:27:29;;;;;;;4.37;1.80;;;;;;;;;;6179271;23;20441;-88
2023/12/05 10:30:05;;;;;;;1.73;1.63;;;;;;;;;;6186001;23;20437;-89
2023/12/05 10:32:47;;;;;;;1.40;1.30;;;;;;;;;;6186256;23;20465;-87
2023/12/05 10:35:43;;;;;;;4.67;1.50;;;;;;;;;;6170358;23;20428;-88
2023/12/05 10:38:14;;;;;;;1.50;1.40;;;;;;;;;;6185308;23;20445;-89
2023/12/05 10:40:59;;;;;;;2.80;1.47;;;;;;;;;;6186282;23;20433;-88
2023/12/05 10:43:47;;;;;;;2.40;2.03;;;;;;;;;;6161702;23;20501;-88
2023/12/05 10:49:52;;;;;;;3.53;1.60;;;;;;;;;;6204451;23;20434;-88
2023/12/05 10:59:06;;;;;;;;;;;;;;;;;;;;;
2023/12/05 11:01:45;;;;;;;4.67;2.00;;;;;;;;;;6185233;23;20442;-89
2023/12/05 11:04:34;;;;;;;5.93;4.07;;;;;;;;;;6174547;23;20398;-89
2023/12/05 11:07:04;;;;;;;2.23;1.83;;;;;;;;;;6182626;23;20501;-87
2023/12/05 11:09:38;;;;;;;4.40;1.77;;;;;;;;;;6183033;23;20398;-89
2023/12/05 11:12:16;;;;;;;1.60;1.50;;;;;;;;;;6181852;23;20911;-86
2023/12/05 11:14:47;;;;;;;2.97;1.53;;;;;;;;;;6181795;23;20418;-87
2023/12/05 11:17:19;;;;;;;3.33;1.63;;;;;;;;;;6179070;23;20405;-88
2023/12/05 11:20:18;;;;;;;1.73;1.63;;;;;;;;;;6180412;23;20433;-88
2023/12/05 11:23:18;;;;;;;2.20;1.50;;;;;;;;;;6178646;23;20449;-88
2023/12/05 11:25:54;;;;;;;2.30;1.27;;;;;;;;;;6180449;23;20418;-87
2023/12/05 11:28:43;;;;;;;1.90;1.07;;;;;;;;;;6180480;23;20441;-88
2023/12/05 11:31:33;;;;;;;1.30;0.80;;;;;;;;;;6181506;23;20761;-87
2023/12/05 11:34:09;;;;;;;1.37;0.80;;;;;;;;;;6180020;23;20421;-88
2023/12/05 11:36:58;;;;;;;0.73;0.70;;;;;;;;;;6180794;23;20418;-89
2023/12/05 11:39:32;;;;;;;1.03;0.63;;;;;;;;;;6181658;23;21043;-88
2023/12/05 11:42:14;;;;;;;1.40;0.77;;;;;;;;;;6180780;23;20445;-88
2023/12/05 11:44:47;;;;;;;0.73;0.57;;;;;;;;;;6183347;23;20410;-88
2023/12/05 11:47:33;;;;;;;0.60;0.60;;;;;;;;;;6182153;23;20442;-89
2023/12/05 11:50:40;;;;;;;2.50;1.00;;;;;;;;;;6182996;23;20460;-89
2023/12/05 11:53:58;;;;;;;0.90;0.70;;;;;;;;;;6019934;23;20448;-89
2023/12/05 11:56:45;;;;;;;0.83;0.70;;;;;;;;;;6079707;23;20476;-86
2023/12/05 11:59:30;;;;;;;;;;;;;;;;;;;;;
2023/12/05 12:02:21;;;;;;;1.60;0.63;;;;;;;;;;6193687;23;20739;-87
2023/12/05 12:05:13;;;;;;;0.80;0.80;;;;;;;;;;6166451;23;20941;-89
2023/12/05 12:08:11;;;;;;;1.70;0.77;;;;;;;;;;6095807;23;20405;-87
2023/12/05 12:10:58;;;;;;;0.70;0.70;;;;;;;;;;6140501;23;20437;-86
2023/12/05 12:17:19;;;;;;;0.90;0.80;;;;;;;;;;6099871;23;20416;-88
2023/12/05 12:20:08;;;;;;;0.87;0.77;;;;;;;;;;6041449;23;20465;-88
2023/12/05 12:22:38;;;;;;;0.70;0.70;;;;;;;;;;6075357;23;20444;-86
2023/12/05 12:25:24;;;;;;;0.60;0.60;;;;;;;;;;6078991;23;20512;-87
2023/12/05 12:28:00;;;;;;;0.60;0.60;;;;;;;;;;6091085;23;20491;-90
2023/12/05 12:30:40;;;;;;;0.60;0.60;;;;;;;;;;6087644;23;20514;-90
2023/12/05 12:33:38;;;;;;;;;;;;;;;;;;;;;
2023/12/05 12:36:09;;;;;;;1.60;0.90;;;;;;;;;;6177842;23;20418;-89
2023/12/05 12:38:50;;;;;;;1.23;0.97;;;;;;;;;;6203646;23;20498;-87
2023/12/05 12:41:23;;;;;;;0.60;0.50;;;;;;;;;;6205773;23;20642;-89
2023/12/05 12:43:54;;;;;;;1.50;0.80;;;;;;;;;;6180148;23;20448;-88
2023/12/05 12:46:39;;;;;;;1.83;1.10;;;;;;;;;;6180570;23;20413;-89
2023/12/05 12:52:44;;;;;;;2.30;1.00;;;;;;;;;;6181948;23;20369;-87
2023/12/05 12:55:35;;;;;;;0.70;0.70;;;;;;;;;;6178643;23;20405;-88
2023/12/05 12:58:16;;;;;;;0.93;0.80;;;;;;;;;;6177074;23;20473;-89
2023/12/05 13:01:16;;;;;;;1.00;0.80;;;;;;;;;;6180524;23;20437;-88
2023/12/05 13:04:12;;;;;;;1.67;1.13;;;;;;;;;;6141379;23;20442;-89
2023/12/05 13:06:57;;;;;;;2.00;0.60;;;;;;;;;;6168423;23;20498;-88
2023/12/05 13:09:51;;;;;;;0.60;0.60;;;;;;;;;;6186087;23;20508;-87
2023/12/05 13:24:58;;;;;;;1.40;1.30;;;;;;;;;;6188118;23;20438;-88
2023/12/05 13:27:39;;;;;;;0.90;0.77;;;;;;;;;;6164656;23;20410;-88
2023/12/05 13:30:35;;;;;;;;;;;;;;;;;;;;;
2023/12/05 13:45:33;;;;;;;1.40;1.30;;;;;;;;;;6165996;23;20422;-89
2023/12/05 13:51:48;;;;;;;1.60;1.00;;;;;;;;;;6163078;23;20405;-89
2023/12/05 13:54:33;;;;;;;0.80;0.80;;;;;;;;;;6163725;23;20411;-88
2023/12/05 13:57:16;;;;;;;1.40;1.20;;;;;;;;;;6136679;23;21034;-88
2023/12/05 13:59:59;;;;;;;1.27;1.13;;;;;;;;;;6137147;23;20415;-88
2023/12/05 14:02:40;;;;;;;;;;;;;;;;;;;;;
2023/12/05 14:05:16;;;;;;;1.80;1.43;;;;;;;;;;6162798;23;20399;-89
2023/12/05 14:07:53;;;;;;;1.90;1.20;;;;;;;;;;6135763;23;20675;-89
2023/12/05 14:10:32;;;;;;;3.63;1.47;;;;;;;;;;6136232;23;20490;-89
2023/12/05 14:13:08;;;;;;;1.27;1.17;;;;;;;;;;6132639;23;20486;-87
2023/12/05 14:15:57;;;;;;;2.13;1.40;;;;;;;;;;6137379;23;20429;-89
2023/12/05 14:21:56;;;;;;;;;;;;;;;;;;;;;
2023/12/05 14:24:40;;;;;;;1.40;1.10;;;;;;;;;;6161926;23;20402;-89
2023/12/05 14:27:36;;;;;;;4.70;1.10;;;;;;;;;;6156427;23;20471;-88
2023/12/05 14:30:37;;;;;;;1.17;1.07;;;;;;;;;;6139277;23;20426;-88
2023/12/05 14:33:07;;;;;;;1.37;1.20;;;;;;;;;;6132126;23;20493;-87
2023/12/05 14:35:46;;;;;;;4.37;2.00;;;;;;;;;;6133197;23;20423;-88
2023/12/05 14:38:16;;;;;;;1.00;0.93;;;;;;;;;;6159470;23;20422;-88
2023/12/05 14:40:54;;;;;;;1.93;0.83;;;;;;;;;;6147320;23;20781;-88
2023/12/05 14:43:28;;;;;;;0.70;0.70;;;;;;;;;;6158626;23;20435;-86
2023/12/05 14:46:19;;;;;;;0.70;0.70;;;;;;;;;;6140112;23;20407;-88
2023/12/05 14:49:27;;;;;;;0.80;0.80;;;;;;;;;;6157314;23;20414;-91
2023/12/05 14:52:06;;;;;;;1.37;0.73;;;;;;;;;;6156676;23;20509;-87
2023/12/05 14:54:40;;;;;;;1.20;1.00;;;;;;;;;;6161873;23;20420;-88
2023/12/05 14:57:19;;;;;;;0.80;0.70;;;;;;;;;;6164688;23;20402;-88
2023/12/05 15:00:08;;;;;;;3.30;0.70;;;;;;;;;;6160041;23;20498;-90
2023/12/05 15:02:58;;;;;;;5.40;0.80;;;;;;;;;;6158553;23;20470;-90
2023/12/05 15:05:31;;;;;;;0.90;0.60;;;;;;;;;;6157352;23;20395;-86
2023/12/05 15:08:04;;;;;;;1.20;1.10;;;;;;;;;;6156419;23;20410;-86
2023/12/05 15:10:42;;;;;;;0.90;0.80;;;;;;;;;;6156968;23;20470;-89
2023/12/05 15:13:21;;;;;;;1.80;1.23;;;;;;;;;;6154966;23;20485;-89
2023/12/05 15:15:56;;;;;;;1.30;1.20;;;;;;;;;;6154799;23;20770;-87
2023/12/05 15:18:38;;;;;;;1.63;1.53;;;;;;;;;;6154794;23;20433;-85
2023/12/05 15:21:29;;;;;;;2.07;1.70;;;;;;;;;;6156491;23;20514;-87
2023/12/05 15:23:59;;;;;;;2.07;1.87;;;;;;;;;;6154826;23;20494;-87
2023/12/05 15:26:50;;;;;;;3.20;2.90;;;;;;;;;;6171463;23;20472;-86
2023/12/05 15:29:19;;;;;;;3.17;2.73;;;;;;;;;;6171396;23;20431;-88
2023/12/05 15:31:57;;;;;;;3.13;2.80;;;;;;;;;;6172965;23;20402;-86
2023/12/05 15:34:42;;;;;;;3.40;3.07;;;;;;;;;;6174036;23;20399;-88
2023/12/05 15:37:38;;;;;;;;;;;;;;;;;;;;;
2023/12/05 15:40:10;;;;;;;3.50;2.30;;;;;;;;;;6172510;23;20450;-88
2023/12/05 15:42:39;;;;;;;3.40;3.10;;;;;;;;;;6145830;23;20423;-87
2023/12/05 15:45:18;;;;;;;3.43;3.10;;;;;;;;;;6139766;23;20461;-88
2023/12/05 15:47:54;;;;;;;3.77;3.40;;;;;;;;;;6140294;23;20469;-87
2023/12/05 15:50:22;;;;;;;4.57;4.00;;;;;;;;;;6133734;23;20947;-87
2023/12/05 15:52:54;;;;;;;5.07;3.83;;;;;;;;;;6132765;23;20418;-87
2023/12/05 15:55:24;;;;;;;5.50;4.50;;;;;;;;;;6133522;23;20430;-89
2023/12/05 15:58:06;;;;;;;6.20;4.77;;;;;;;;;;6133508;23;20419;-88
2023/12/05 16:00:36;;;;;;;6.97;5.60;;;;;;;;;;6134288;23;20470;-88
2023/12/05 16:03:17;;;;;;;6.43;4.63;;;;;;;;;;6133819;23;20442;-87
2023/12/05 16:06:22;;;;;;;;;;;;;;;;;;;;;
2023/12/05 16:09:22;;;;;;;6.93;4.47;;;;;;;;;;6158069;23;20422;-89
2023/12/05 16:11:58;;;;;;;5.23;4.60;;;;;;;;;;6131248;23;20413;-88
2023/12/05 16:14:42;;;;;;;9.40;5.70;;;;;;;;;;6132674;23;20493;-86
2023/12/05 16:17:14;;;;;;;7.30;6.10;;;;;;;;;;6130834;23;20517;-89
2023/12/05 16:19:47;;;;;;;7.80;5.70;;;;;;;;;;6132356;23;20528;-87
2023/12/05 16:22:34;;;;;;;6.70;5.97;;;;;;;;;;6130561;23;20415;-88
2023/12/05 16:25:05;;;;;;;8.40;5.47;;;;;;;;;;6130578;23;20391;-87
2023/12/05 16:36:57;;;;;;;8.40;6.00;;;;;;;;;;6147491;23;20903;-86
2023/12/05 16:39:44;;;;;;;7.80;6.27;;;;;;;;;;6136641;23;20454;-85
2023/12/05 16:42:31;;;;;;;6.37;4.67;;;;;;;;;;6162290;23;20418;-86
2023/12/05 16:45:21;;;;;;;8.53;5.77;;;;;;;;;;6156225;23;20422;-86
2023/12/05 16:48:05;;;;;;;7.77;5.60;;;;;;;;;;6118873;23;20791;-85
2023/12/05 16:50:45;;;;;;;8.67;5.60;;;;;;;;;;6129879;23;20454;-84
2023/12/05 16:53:29;;;;;;;6.67;5.43;;;;;;;;;;6156120;23;20489;-84
2023/12/05 16:56:04;;;;;;;6.03;5.40;;;;;;;;;;6157350;23;20417;-85
2023/12/05 17:01:30;;;;;;;8.03;6.60;;;;;;;;;;6126422;23;20723;-87
2023/12/05 17:04:11;;;;;;;9.23;6.27;;;;;;;;;;6133175;23;20446;-87
2023/12/05 17:06:47;;;;;;;7.83;5.90;;;;;;;;;;6132525;23;20418;-87
2023/12/05 17:09:27;;;;;;;7.50;5.80;;;;;;;;;;6131425;23;20453;-87
2023/12/05 17:12:15;;;;;;;7.87;5.40;;;;;;;;;;6133497;23;20415;-85
2023/12/05 17:14:53;;;;;;;7.43;5.60;;;;;;;;;;6132646;23;20419;-89
2023/12/05 17:17:33;;;;;;;;;;;;;;;;;;;;;
2023/12/05 17:20:12;;;;;;;4.70;4.00;;;;;;;;;;6159090;23;20509;-88
2023/12/05 17:22:47;;;;;;;13.40;7.70;;;;;;;;;;6149395;23;20481;-88
2023/12/05 17:25:23;;;;;;;6.90;5.43;;;;;;;;;;6198851;23;20425;-89
2023/12/05 17:28:16;;;;;;;5.73;4.50;;;;;;;;;;6164128;23;20563;-86
2023/12/05 17:31:04;;;;;;;5.47;4.97;;;;;;;;;;6163108;23;20548;-87
2023/12/05 17:33:53;;;;;;;7.23;4.90;;;;;;;;;;6169036;23;20421;-87
2023/12/05 17:36:44;;;;;;;5.50;4.43;;;;;;;;;;6164820;23;20412;-86
2023/12/05 17:39:37;;;;;;;5.70;4.10;;;;;;;;;;6187339;23;20406;-86
2023/12/05 17:42:15;;;;;;;4.90;3.70;;;;;;;;;;6184282;23;20424;-86
2023/12/05 17:44:51;;;;;;;5.00;3.70;;;;;;;;;;6162076;23;20549;-87
2023/12/05 17:47:22;;;;;;;5.17;4.20;;;;;;;;;;6160992;23;20410;-87
2023/12/05 17:50:12;;;;;;;5.90;3.73;;;;;;;;;;6157977;23;20438;-88
2023/12/05 17:52:42;;;;;;;6.90;4.10;;;;;;;;;;6176245;23;20481;-89
2023/12/05 17:55:37;;;;;;;4.60;3.70;;;;;;;;;;6168447;23;20437;-87
2023/12/05 17:58:36;;;;;;;4.73;4.13;;;;;;;;;;6165104;23;20413;-88
2023/12/05 18:01:24;;;;;;;5.33;3.70;;;;;;;;;;6161016;23;20449;-88
2023/12/05 18:04:46;;;;;;;;;;;;;;;;;;;;;
2023/12/05 18:07:47;;;;;;;6.47;4.00;;;;;;;;;;6045450;23;20412;-90
2023/12/05 18:10:54;;;;;;;4.90;3.60;;;;;;;;;;5983297;23;20871;-90
2023/12/05 18:24:03;;;;;;;4.63;4.10;;;;;;;;;;5960077;23;20471;-88
2023/12/05 18:33:13;;;;;;;6.57;4.70;;;;;;;;;;6106718;23;20982;-88
2023/12/05 18:35:55;;;;;;;5.17;4.50;;;;;;;;;;6161500;23;20436;-86
2023/12/05 18:39:05;;;;;;;6.37;4.40;;;;;;;;;;6167496;23;20440;-87
2023/12/05 18:42:11;;;;;;;5.57;4.30;;;;;;;;;;6181110;23;20396;-88
2023/12/05 18:45:07;;;;;;;4.97;4.47;;;;;;;;;;6147915;23;20449;-86
2023/12/05 18:48:14;;;;;;;;;;;;;;;;;;;;;
2023/12/05 18:51:12;;;;;;;6.80;5.07;;;;;;;;;;6045484;23;20711;-86
2023/12/05 18:57:41;;;;;;;6.13;4.03;;;;;;;;;;6052044;23;20543;-88
2023/12/05 19:03:56;;;;;;;;;;;;;;;;;;;;;
2023/12/05 19:06:54;;;;;;;6.70;4.87;;;;;;;;;;6070349;23;20430;-87
2023/12/05 19:09:54;;;;;;;8.43;4.60;;;;;;;;;;5987010;24;20829;-87
2023/12/05 19:12:57;;;;;;;;;;;;;;;;;;;;;
2023/12/05 19:16:03;;;;;;;7.90;5.20;;;;;;;;;;5979715;24;20443;-88
2023/12/05 19:22:27;;;;;;;6.30;5.30;;;;;;;;;;5906103;24;20496;-88
2023/12/05 19:25:22;;;;;;;;;;;;;;;;;;;;;
2023/12/05 19:28:27;;;;;;;8.07;6.37;;;;;;;;;;5954891;24;20392;-89
2023/12/05 19:31:20;;;;;;;7.30;5.23;;;;;;;;;;5842759;24;20420;-88
2023/12/05 19:34:24;;;;;;;7.77;5.30;;;;;;;;;;5818706;24;20425;-89
2023/12/05 19:36:58;;;;;;;8.70;5.40;;;;;;;;;;5823591;24;20443;-86
2023/12/05 19:39:44;;;;;;;7.57;5.93;;;;;;;;;;5821152;24;20428;-85
2023/12/05 19:42:44;;;;;;;;;;;;;;;;;;;;;
2023/12/05 19:45:23;;;;;;;8.67;5.70;;;;;;;;;;5841999;24;20445;-86
2023/12/05 19:51:41;;;;;;;14.10;9.87;;;;;;;;;;5953371;24;20434;-87
2023/12/05 19:54:22;;;;;;;7.20;5.23;;;;;;;;;;5951723;24;20412;-88
2023/12/05 19:57:17;;;;;;;6.90;5.77;;;;;;;;;;5937963;24;20421;-86
2023/12/05 20:13:55;;;;;;;11.47;7.07;;;;;;;;;;6118575;23;20410;-87
2023/12/05 20:16:54;;;;;;;10.77;6.97;;;;;;;;;;6180735;23;20394;-89
2023/12/05 20:19:33;;;;;;;10.80;5.90;;;;;;;;;;6178181;23;20413;-87
2023/12/05 20:22:15;;;;;;;8.83;5.50;;;;;;;;;;6173140;23;20441;-89
2023/12/05 20:28:51;;;;;;;11.00;6.70;;;;;;;;;;6108951;23;20424;-90
2023/12/05 20:31:57;;;;;;;9.10;6.50;;;;;;;;;;6191784;23;20850;-88